sensor_id;sensor_type;location;lat;lon;timestamp;P1;durP1;ratioP1;P2;durP2;ratioP2
4674;SDS011;2351;50.812;12.872;2022-09-21T00:01:58;4.70;;;2.30;;
4674;SDS011;2351;50.812;12.872;2022-09-21T00:04:29;2.20;;;2.03;;
4674;SDS011;2351;50.812;12.872;2022-09-21T00:07:01;2.83;;;2.17;;
4674;SDS011;2351;50.812;12.872;2022-09-21T00:09:32;2.97;;;2.40;;
4674;SDS011;2351;50.812;12.872;2022-09-21T00:12:04;3.23;;;2.33;;
4674;SDS011;2351;50.812;12.872;2022-09-21T00:14:35;3.03;;;2.10;;
4674;SDS011;2351;50.812;12.872;2022-09-21T00:17:08;2.33;;;2.00;;
4674;SDS011;2351;50.812;12.872;2022-09-21T00:19:40;4.70;;;3.30;;
4674;SDS011;2351;50.812;12.872;2022-09-21T00:22:11;4.33;;;2.60;;
4674;SDS011;2351;50.812;12.872;2022-09-21T00:24:43;3.00;;;2.23;;
4674;SDS011;2351;50.812;12.872;2022-09-21T00:27:14;5.70;;;3.20;;
4674;SDS011;2351;50.812;12.872;2022-09-21T00:29:46;4.07;;;2.97;;
4674;SDS011;2351;50.812;12.872;2022-09-21T00:32:19;3.90;;;2.80;;
4674;SDS011;2351;50.812;12.872;2022-09-21T00:34:50;5.17;;;2.47;;
4674;SDS011;2351;50.812;12.872;2022-09-21T00:37:22;5.07;;;3.23;;
4674;SDS011;2351;50.812;12.872;2022-09-21T00:39:55;4.13;;;2.97;;
4674;SDS011;2351;50.812;12.872;2022-09-21T00:42:28;6.50;;;3.40;;
4674;SDS011;2351;50.812;12.872;2022-09-21T00:45:01;4.27;;;2.90;;
4674;SDS011;2351;50.812;12.872;2022-09-21T00:47:36;4.07;;;3.10;;
4674;SDS011;2351;50.812;12.872;2022-09-21T00:50:11;6.90;;;2.83;;
4674;SDS011;2351;50.812;12.872;2022-09-21T00:52:46;4.50;;;2.60;;
4674;SDS011;2351;50.812;12.872;2022-09-21T00:55:21;4.40;;;3.10;;
4674;SDS011;2351;50.812;12.872;2022-09-21T00:57:58;4.47;;;3.23;;
4674;SDS011;2351;50.812;12.872;2022-09-21T01:00:33;3.20;;;2.57;;
4674;SDS011;2351;50.812;12.872;2022-09-21T01:03:06;7.03;;;3.53;;
4674;SDS011;2351;50.812;12.872;2022-09-21T01:05:40;3.67;;;2.23;;
4674;SDS011;2351;50.812;12.872;2022-09-21T01:08:12;14.20;;;2.97;;
4674;SDS011;2351;50.812;12.872;2022-09-21T01:11:02;5.40;;;3.07;;
4674;SDS011;2351;50.812;12.872;2022-09-21T01:13:58;4.77;;;2.87;;
4674;SDS011;2351;50.812;12.872;2022-09-21T01:16:43;4.50;;;2.80;;
4674;SDS011;2351;50.812;12.872;2022-09-21T01:19:28;3.53;;;2.60;;
4674;SDS011;2351;50.812;12.872;2022-09-21T01:22:16;4.87;;;2.90;;
4674;SDS011;2351;50.812;12.872;2022-09-21T01:24:58;2.63;;;2.30;;
4674;SDS011;2351;50.812;12.872;2022-09-21T01:27:48;5.43;;;2.83;;
4674;SDS011;2351;50.812;12.872;2022-09-21T01:30:29;5.00;;;2.70;;
4674;SDS011;2351;50.812;12.872;2022-09-21T01:33:05;6.23;;;3.07;;
4674;SDS011;2351;50.812;12.872;2022-09-21T01:35:44;4.83;;;2.70;;
4674;SDS011;2351;50.812;12.872;2022-09-21T01:38:20;5.07;;;2.60;;
4674;SDS011;2351;50.812;12.872;2022-09-21T01:40:57;10.80;;;3.20;;
4674;SDS011;2351;50.812;12.872;2022-09-21T01:43:33;3.93;;;2.50;;
4674;SDS011;2351;50.812;12.872;2022-09-21T01:46:11;4.53;;;3.10;;
4674;SDS011;2351;50.812;12.872;2022-09-21T01:48:47;5.60;;;3.07;;
4674;SDS011;2351;50.812;12.872;2022-09-21T01:51:21;4.80;;;2.83;;
4674;SDS011;2351;50.812;12.872;2022-09-21T01:53:58;3.73;;;2.47;;
4674;SDS011;2351;50.812;12.872;2022-09-21T01:56:35;7.30;;;3.33;;
4674;SDS011;2351;50.812;12.872;2022-09-21T01:59:10;4.57;;;2.90;;
4674;SDS011;2351;50.812;12.872;2022-09-21T02:01:49;5.43;;;2.90;;
4674;SDS011;2351;50.812;12.872;2022-09-21T02:04:26;6.93;;;2.87;;
4674;SDS011;2351;50.812;12.872;2022-09-21T02:06:58;6.07;;;2.37;;
4674;SDS011;2351;50.812;12.872;2022-09-21T02:09:29;2.97;;;2.57;;
4674;SDS011;2351;50.812;12.872;2022-09-21T02:12:02;5.30;;;3.30;;
4674;SDS011;2351;50.812;12.872;2022-09-21T02:14:34;4.70;;;3.00;;
4674;SDS011;2351;50.812;12.872;2022-09-21T02:17:15;4.93;;;2.40;;
4674;SDS011;2351;50.812;12.872;2022-09-21T02:20:04;5.30;;;3.50;;
4674;SDS011;2351;50.812;12.872;2022-09-21T02:22:50;15.53;;;3.13;;
4674;SDS011;2351;50.812;12.872;2022-09-21T02:25:33;6.27;;;3.50;;
4674;SDS011;2351;50.812;12.872;2022-09-21T02:28:12;7.97;;;4.63;;
4674;SDS011;2351;50.812;12.872;2022-09-21T02:30:52;8.60;;;5.93;;
4674;SDS011;2351;50.812;12.872;2022-09-21T02:33:33;5.70;;;4.13;;
4674;SDS011;2351;50.812;12.872;2022-09-21T02:36:15;5.47;;;4.00;;
4674;SDS011;2351;50.812;12.872;2022-09-21T02:38:53;5.50;;;2.83;;
4674;SDS011;2351;50.812;12.872;2022-09-21T02:41:35;4.33;;;3.00;;
4674;SDS011;2351;50.812;12.872;2022-09-21T02:44:11;4.17;;;3.00;;
4674;SDS011;2351;50.812;12.872;2022-09-21T02:46:48;10.30;;;3.03;;
4674;SDS011;2351;50.812;12.872;2022-09-21T02:49:26;4.57;;;3.20;;
4674;SDS011;2351;50.812;12.872;2022-09-21T02:52:03;3.57;;;2.63;;
4674;SDS011;2351;50.812;12.872;2022-09-21T02:54:39;8.20;;;3.10;;
4674;SDS011;2351;50.812;12.872;2022-09-21T02:57:17;5.67;;;2.93;;
4674;SDS011;2351;50.812;12.872;2022-09-21T02:59:50;3.03;;;2.27;;
4674;SDS011;2351;50.812;12.872;2022-09-21T03:02:22;5.23;;;3.10;;
4674;SDS011;2351;50.812;12.872;2022-09-21T03:04:55;3.70;;;2.93;;
4674;SDS011;2351;50.812;12.872;2022-09-21T03:07:27;3.73;;;2.40;;
4674;SDS011;2351;50.812;12.872;2022-09-21T03:09:58;6.93;;;3.90;;
4674;SDS011;2351;50.812;12.872;2022-09-21T03:12:30;8.93;;;4.13;;
4674;SDS011;2351;50.812;12.872;2022-09-21T03:15:02;4.07;;;2.70;;
4674;SDS011;2351;50.812;12.872;2022-09-21T03:17:35;3.80;;;2.93;;
4674;SDS011;2351;50.812;12.872;2022-09-21T03:20:08;4.40;;;3.00;;
4674;SDS011;2351;50.812;12.872;2022-09-21T03:22:39;6.33;;;3.10;;
4674;SDS011;2351;50.812;12.872;2022-09-21T03:25:11;4.30;;;3.20;;
4674;SDS011;2351;50.812;12.872;2022-09-21T03:27:42;5.10;;;3.50;;
4674;SDS011;2351;50.812;12.872;2022-09-21T03:30:14;5.30;;;2.70;;
4674;SDS011;2351;50.812;12.872;2022-09-21T03:32:47;3.00;;;2.70;;
4674;SDS011;2351;50.812;12.872;2022-09-21T03:35:21;3.50;;;2.60;;
4674;SDS011;2351;50.812;12.872;2022-09-21T03:37:54;4.13;;;3.20;;
4674;SDS011;2351;50.812;12.872;2022-09-21T03:40:27;4.17;;;2.80;;
4674;SDS011;2351;50.812;12.872;2022-09-21T03:42:58;3.90;;;3.53;;
4674;SDS011;2351;50.812;12.872;2022-09-21T03:45:30;4.20;;;2.90;;
4674;SDS011;2351;50.812;12.872;2022-09-21T03:48:01;5.03;;;3.13;;
4674;SDS011;2351;50.812;12.872;2022-09-21T03:50:34;5.00;;;2.90;;
4674;SDS011;2351;50.812;12.872;2022-09-21T03:53:06;2.83;;;2.40;;
4674;SDS011;2351;50.812;12.872;2022-09-21T03:55:38;4.27;;;3.10;;
4674;SDS011;2351;50.812;12.872;2022-09-21T03:58:09;3.53;;;2.77;;
4674;SDS011;2351;50.812;12.872;2022-09-21T04:00:41;7.20;;;2.97;;
4674;SDS011;2351;50.812;12.872;2022-09-21T04:03:12;8.63;;;2.47;;
4674;SDS011;2351;50.812;12.872;2022-09-21T04:05:45;3.60;;;2.80;;
4674;SDS011;2351;50.812;12.872;2022-09-21T04:08:17;7.90;;;3.10;;
4674;SDS011;2351;50.812;12.872;2022-09-21T04:10:48;6.70;;;3.07;;
4674;SDS011;2351;50.812;12.872;2022-09-21T04:13:20;4.43;;;3.03;;
4674;SDS011;2351;50.812;12.872;2022-09-21T04:15:53;4.70;;;3.07;;
4674;SDS011;2351;50.812;12.872;2022-09-21T04:18:25;7.40;;;2.93;;
4674;SDS011;2351;50.812;12.872;2022-09-21T04:20:57;5.00;;;2.93;;
4674;SDS011;2351;50.812;12.872;2022-09-21T04:23:29;5.70;;;3.90;;
4674;SDS011;2351;50.812;12.872;2022-09-21T04:26:00;7.20;;;3.40;;
4674;SDS011;2351;50.812;12.872;2022-09-21T04:28:32;5.07;;;3.40;;
4674;SDS011;2351;50.812;12.872;2022-09-21T04:31:04;4.90;;;3.60;;
4674;SDS011;2351;50.812;12.872;2022-09-21T04:33:35;15.30;;;3.40;;
4674;SDS011;2351;50.812;12.872;2022-09-21T04:36:08;7.97;;;3.60;;
4674;SDS011;2351;50.812;12.872;2022-09-21T04:38:40;5.57;;;3.50;;
4674;SDS011;2351;50.812;12.872;2022-09-21T04:41:11;8.97;;;4.57;;
4674;SDS011;2351;50.812;12.872;2022-09-21T04:43:44;9.40;;;3.93;;
4674;SDS011;2351;50.812;12.872;2022-09-21T04:46:17;4.33;;;3.53;;
4674;SDS011;2351;50.812;12.872;2022-09-21T04:48:50;6.20;;;3.67;;
4674;SDS011;2351;50.812;12.872;2022-09-21T04:51:23;8.10;;;3.40;;
4674;SDS011;2351;50.812;12.872;2022-09-21T04:53:55;4.37;;;3.33;;
4674;SDS011;2351;50.812;12.872;2022-09-21T04:56:27;7.57;;;4.43;;
4674;SDS011;2351;50.812;12.872;2022-09-21T04:58:59;8.20;;;4.43;;
4674;SDS011;2351;50.812;12.872;2022-09-21T05:01:31;9.60;;;3.97;;
4674;SDS011;2351;50.812;12.872;2022-09-21T05:04:02;6.30;;;4.37;;
4674;SDS011;2351;50.812;12.872;2022-09-21T05:06:35;5.10;;;3.50;;
4674;SDS011;2351;50.812;12.872;2022-09-21T05:09:07;9.00;;;4.50;;
4674;SDS011;2351;50.812;12.872;2022-09-21T05:11:56;6.30;;;3.97;;
4674;SDS011;2351;50.812;12.872;2022-09-21T05:14:27;9.00;;;4.00;;
4674;SDS011;2351;50.812;12.872;2022-09-21T05:16:59;5.87;;;3.30;;
4674;SDS011;2351;50.812;12.872;2022-09-21T05:19:30;7.20;;;3.80;;
4674;SDS011;2351;50.812;12.872;2022-09-21T05:22:03;5.70;;;3.40;;
4674;SDS011;2351;50.812;12.872;2022-09-21T05:24:35;5.80;;;3.50;;
4674;SDS011;2351;50.812;12.872;2022-09-21T05:27:06;6.07;;;3.70;;
4674;SDS011;2351;50.812;12.872;2022-09-21T05:29:38;7.17;;;4.13;;
4674;SDS011;2351;50.812;12.872;2022-09-21T05:32:12;7.80;;;5.03;;
4674;SDS011;2351;50.812;12.872;2022-09-21T05:34:52;13.73;;;6.63;;
4674;SDS011;2351;50.812;12.872;2022-09-21T05:37:38;6.33;;;4.33;;
4674;SDS011;2351;50.812;12.872;2022-09-21T05:40:16;13.03;;;6.03;;
4674;SDS011;2351;50.812;12.872;2022-09-21T05:42:48;8.27;;;4.93;;
4674;SDS011;2351;50.812;12.872;2022-09-21T05:45:20;10.27;;;5.53;;
4674;SDS011;2351;50.812;12.872;2022-09-21T05:47:54;12.20;;;5.00;;
4674;SDS011;2351;50.812;12.872;2022-09-21T05:50:39;8.07;;;5.07;;
4674;SDS011;2351;50.812;12.872;2022-09-21T05:53:21;6.47;;;4.90;;
4674;SDS011;2351;50.812;12.872;2022-09-21T05:55:59;6.10;;;4.10;;
4674;SDS011;2351;50.812;12.872;2022-09-21T05:58:38;9.37;;;5.20;;
4674;SDS011;2351;50.812;12.872;2022-09-21T06:01:23;17.80;;;9.20;;
4674;SDS011;2351;50.812;12.872;2022-09-21T06:04:04;12.07;;;5.63;;
4674;SDS011;2351;50.812;12.872;2022-09-21T06:06:40;7.27;;;4.37;;
4674;SDS011;2351;50.812;12.872;2022-09-21T06:09:13;7.53;;;4.23;;
4674;SDS011;2351;50.812;12.872;2022-09-21T06:11:44;11.03;;;4.53;;
4674;SDS011;2351;50.812;12.872;2022-09-21T06:14:16;10.53;;;5.23;;
4674;SDS011;2351;50.812;12.872;2022-09-21T06:16:53;17.33;;;4.73;;
4674;SDS011;2351;50.812;12.872;2022-09-21T06:19:25;7.37;;;4.80;;
4674;SDS011;2351;50.812;12.872;2022-09-21T06:21:56;8.20;;;4.40;;
4674;SDS011;2351;50.812;12.872;2022-09-21T06:24:29;8.70;;;5.17;;
4674;SDS011;2351;50.812;12.872;2022-09-21T06:27:01;10.07;;;5.50;;
4674;SDS011;2351;50.812;12.872;2022-09-21T06:29:32;6.60;;;4.07;;
4674;SDS011;2351;50.812;12.872;2022-09-21T06:32:04;9.90;;;4.80;;
4674;SDS011;2351;50.812;12.872;2022-09-21T06:34:35;13.23;;;4.60;;
4674;SDS011;2351;50.812;12.872;2022-09-21T06:37:07;8.70;;;5.07;;
4674;SDS011;2351;50.812;12.872;2022-09-21T06:39:40;5.33;;;4.10;;
4674;SDS011;2351;50.812;12.872;2022-09-21T06:42:12;6.67;;;4.30;;
4674;SDS011;2351;50.812;12.872;2022-09-21T06:44:43;10.10;;;4.93;;
4674;SDS011;2351;50.812;12.872;2022-09-21T06:47:15;8.77;;;4.57;;
4674;SDS011;2351;50.812;12.872;2022-09-21T06:49:46;9.90;;;4.47;;
4674;SDS011;2351;50.812;12.872;2022-09-21T06:52:18;7.90;;;4.53;;
4674;SDS011;2351;50.812;12.872;2022-09-21T06:54:51;9.70;;;5.00;;
4674;SDS011;2351;50.812;12.872;2022-09-21T06:57:22;9.00;;;4.30;;
4674;SDS011;2351;50.812;12.872;2022-09-21T06:59:54;9.73;;;4.20;;
4674;SDS011;2351;50.812;12.872;2022-09-21T07:02:25;7.30;;;3.90;;
4674;SDS011;2351;50.812;12.872;2022-09-21T07:04:57;12.10;;;3.63;;
4674;SDS011;2351;50.812;12.872;2022-09-21T07:07:28;6.07;;;4.30;;
4674;SDS011;2351;50.812;12.872;2022-09-21T07:10:02;6.13;;;4.37;;
4674;SDS011;2351;50.812;12.872;2022-09-21T07:12:37;11.03;;;3.87;;
4674;SDS011;2351;50.812;12.872;2022-09-21T07:15:09;8.90;;;4.43;;
4674;SDS011;2351;50.812;12.872;2022-09-21T07:17:40;8.33;;;3.83;;
4674;SDS011;2351;50.812;12.872;2022-09-21T07:20:13;3.97;;;3.17;;
4674;SDS011;2351;50.812;12.872;2022-09-21T07:22:45;6.80;;;4.30;;
4674;SDS011;2351;50.812;12.872;2022-09-21T07:25:18;6.60;;;4.40;;
4674;SDS011;2351;50.812;12.872;2022-09-21T07:27:49;6.60;;;4.60;;
4674;SDS011;2351;50.812;12.872;2022-09-21T07:30:21;7.40;;;4.00;;
4674;SDS011;2351;50.812;12.872;2022-09-21T07:32:52;5.47;;;4.07;;
4674;SDS011;2351;50.812;12.872;2022-09-21T07:35:24;10.73;;;4.70;;
4674;SDS011;2351;50.812;12.872;2022-09-21T07:37:56;6.83;;;3.70;;
4674;SDS011;2351;50.812;12.872;2022-09-21T07:40:29;12.80;;;4.67;;
4674;SDS011;2351;50.812;12.872;2022-09-21T07:43:01;5.90;;;3.87;;
4674;SDS011;2351;50.812;12.872;2022-09-21T07:45:32;7.33;;;5.20;;
4674;SDS011;2351;50.812;12.872;2022-09-21T07:48:04;9.57;;;4.47;;
4674;SDS011;2351;50.812;12.872;2022-09-21T07:50:38;7.47;;;4.77;;
4674;SDS011;2351;50.812;12.872;2022-09-21T07:53:09;13.53;;;5.07;;
4674;SDS011;2351;50.812;12.872;2022-09-21T07:55:42;8.70;;;5.60;;
4674;SDS011;2351;50.812;12.872;2022-09-21T07:58:14;11.13;;;5.57;;
4674;SDS011;2351;50.812;12.872;2022-09-21T08:01:04;10.60;;;5.17;;
4674;SDS011;2351;50.812;12.872;2022-09-21T08:03:36;10.17;;;5.20;;
4674;SDS011;2351;50.812;12.872;2022-09-21T08:06:07;8.30;;;4.83;;
4674;SDS011;2351;50.812;12.872;2022-09-21T08:08:39;7.40;;;5.47;;
4674;SDS011;2351;50.812;12.872;2022-09-21T08:11:12;8.13;;;5.80;;
4674;SDS011;2351;50.812;12.872;2022-09-21T08:13:44;12.10;;;5.77;;
4674;SDS011;2351;50.812;12.872;2022-09-21T08:16:17;9.83;;;6.33;;
4674;SDS011;2351;50.812;12.872;2022-09-21T08:18:48;11.23;;;6.50;;
4674;SDS011;2351;50.812;12.872;2022-09-21T08:21:20;13.27;;;8.90;;
4674;SDS011;2351;50.812;12.872;2022-09-21T08:23:51;9.87;;;6.77;;
4674;SDS011;2351;50.812;12.872;2022-09-21T08:26:25;10.23;;;7.20;;
4674;SDS011;2351;50.812;12.872;2022-09-21T08:28:56;11.33;;;6.43;;
4674;SDS011;2351;50.812;12.872;2022-09-21T08:31:28;12.20;;;7.60;;
4674;SDS011;2351;50.812;12.872;2022-09-21T08:34:00;14.70;;;6.83;;
4674;SDS011;2351;50.812;12.872;2022-09-21T08:36:31;11.30;;;6.40;;
4674;SDS011;2351;50.812;12.872;2022-09-21T08:39:05;9.27;;;6.50;;
4674;SDS011;2351;50.812;12.872;2022-09-21T08:41:46;11.90;;;6.27;;
4674;SDS011;2351;50.812;12.872;2022-09-21T08:44:28;11.90;;;7.10;;
4674;SDS011;2351;50.812;12.872;2022-09-21T08:47:09;9.90;;;5.83;;
4674;SDS011;2351;50.812;12.872;2022-09-21T08:49:44;8.37;;;5.90;;
4674;SDS011;2351;50.812;12.872;2022-09-21T08:52:20;9.03;;;6.03;;
4674;SDS011;2351;50.812;12.872;2022-09-21T08:54:55;9.00;;;5.27;;
4674;SDS011;2351;50.812;12.872;2022-09-21T08:57:32;12.53;;;4.57;;
4674;SDS011;2351;50.812;12.872;2022-09-21T09:00:06;15.63;;;5.60;;
4674;SDS011;2351;50.812;12.872;2022-09-21T09:05:48;11.87;;;5.20;;
4674;SDS011;2351;50.812;12.872;2022-09-21T09:08:41;9.10;;;5.97;;
4674;SDS011;2351;50.812;12.872;2022-09-21T09:11:34;8.37;;;5.10;;
4674;SDS011;2351;50.812;12.872;2022-09-21T09:14:20;10.67;;;4.70;;
4674;SDS011;2351;50.812;12.872;2022-09-21T09:20:02;8.80;;;4.77;;
4674;SDS011;2351;50.812;12.872;2022-09-21T09:22:38;6.50;;;4.87;;
4674;SDS011;2351;50.812;12.872;2022-09-21T09:25:15;9.03;;;4.87;;
4674;SDS011;2351;50.812;12.872;2022-09-21T09:27:51;10.10;;;4.53;;
4674;SDS011;2351;50.812;12.872;2022-09-21T09:30:28;9.53;;;5.07;;
4674;SDS011;2351;50.812;12.872;2022-09-21T09:33:05;11.80;;;4.73;;
4674;SDS011;2351;50.812;12.872;2022-09-21T09:35:43;5.73;;;3.67;;
4674;SDS011;2351;50.812;12.872;2022-09-21T09:38:18;4.10;;;3.60;;
4674;SDS011;2351;50.812;12.872;2022-09-21T09:44:08;9.40;;;3.67;;
4674;SDS011;2351;50.812;12.872;2022-09-21T09:47:03;13.03;;;4.50;;
4674;SDS011;2351;50.812;12.872;2022-09-21T09:49:46;7.80;;;2.83;;
4674;SDS011;2351;50.812;12.872;2022-09-21T09:52:26;4.20;;;2.30;;
4674;SDS011;2351;50.812;12.872;2022-09-21T09:54:59;3.73;;;2.93;;
4674;SDS011;2351;50.812;12.872;2022-09-21T09:57:32;6.60;;;3.43;;
4674;SDS011;2351;50.812;12.872;2022-09-21T10:00:04;6.13;;;2.47;;
4674;SDS011;2351;50.812;12.872;2022-09-21T10:02:46;6.73;;;2.23;;
4674;SDS011;2351;50.812;12.872;2022-09-21T10:05:20;6.30;;;2.37;;
4674;SDS011;2351;50.812;12.872;2022-09-21T10:07:54;5.07;;;2.30;;
4674;SDS011;2351;50.812;12.872;2022-09-21T10:10:30;1.80;;;1.60;;
4674;SDS011;2351;50.812;12.872;2022-09-21T10:13:05;3.33;;;1.93;;
4674;SDS011;2351;50.812;12.872;2022-09-21T10:15:43;1.63;;;1.40;;
4674;SDS011;2351;50.812;12.872;2022-09-21T10:18:21;1.93;;;1.13;;
4674;SDS011;2351;50.812;12.872;2022-09-21T10:20:55;5.93;;;1.63;;
4674;SDS011;2351;50.812;12.872;2022-09-21T10:23:30;2.20;;;1.30;;
4674;SDS011;2351;50.812;12.872;2022-09-21T10:26:04;1.87;;;1.63;;
4674;SDS011;2351;50.812;12.872;2022-09-21T10:28:52;5.00;;;1.43;;
4674;SDS011;2351;50.812;12.872;2022-09-21T10:31:26;3.60;;;1.60;;
4674;SDS011;2351;50.812;12.872;2022-09-21T10:34:09;3.00;;;1.67;;
4674;SDS011;2351;50.812;12.872;2022-09-21T10:36:48;3.50;;;1.57;;
4674;SDS011;2351;50.812;12.872;2022-09-21T10:39:22;1.57;;;1.10;;
4674;SDS011;2351;50.812;12.872;2022-09-21T10:42:02;2.40;;;1.50;;
4674;SDS011;2351;50.812;12.872;2022-09-21T10:44:39;3.17;;;1.37;;
4674;SDS011;2351;50.812;12.872;2022-09-21T10:47:14;5.20;;;1.33;;
4674;SDS011;2351;50.812;12.872;2022-09-21T10:49:51;1.47;;;1.30;;
4674;SDS011;2351;50.812;12.872;2022-09-21T10:52:24;3.33;;;1.93;;
4674;SDS011;2351;50.812;12.872;2022-09-21T10:55:04;8.27;;;1.50;;
4674;SDS011;2351;50.812;12.872;2022-09-21T10:57:38;3.60;;;1.40;;
4674;SDS011;2351;50.812;12.872;2022-09-21T11:00:16;3.13;;;1.93;;
4674;SDS011;2351;50.812;12.872;2022-09-21T11:02:58;3.27;;;1.87;;
4674;SDS011;2351;50.812;12.872;2022-09-21T11:05:33;2.17;;;1.27;;
4674;SDS011;2351;50.812;12.872;2022-09-21T11:08:10;4.10;;;1.50;;
4674;SDS011;2351;50.812;12.872;2022-09-21T11:10:47;7.40;;;1.97;;
4674;SDS011;2351;50.812;12.872;2022-09-21T11:13:24;3.10;;;1.40;;
4674;SDS011;2351;50.812;12.872;2022-09-21T11:16:01;2.83;;;1.47;;
4674;SDS011;2351;50.812;12.872;2022-09-21T11:18:42;1.73;;;1.40;;
4674;SDS011;2351;50.812;12.872;2022-09-21T11:21:23;2.70;;;1.83;;
4674;SDS011;2351;50.812;12.872;2022-09-21T11:24:02;2.70;;;1.60;;
4674;SDS011;2351;50.812;12.872;2022-09-21T11:26:43;2.50;;;1.77;;
4674;SDS011;2351;50.812;12.872;2022-09-21T11:29:17;2.80;;;1.30;;
4674;SDS011;2351;50.812;12.872;2022-09-21T11:32:06;4.07;;;1.57;;
4674;SDS011;2351;50.812;12.872;2022-09-21T11:34:49;2.23;;;1.17;;
4674;SDS011;2351;50.812;12.872;2022-09-21T11:37:38;3.37;;;1.53;;
4674;SDS011;2351;50.812;12.872;2022-09-21T11:40:24;1.90;;;1.00;;
4674;SDS011;2351;50.812;12.872;2022-09-21T11:43:07;1.13;;;0.70;;
4674;SDS011;2351;50.812;12.872;2022-09-21T11:45:54;1.50;;;1.20;;
4674;SDS011;2351;50.812;12.872;2022-09-21T11:48:40;0.97;;;0.87;;
4674;SDS011;2351;50.812;12.872;2022-09-21T11:51:26;1.90;;;1.50;;
4674;SDS011;2351;50.812;12.872;2022-09-21T11:54:17;2.13;;;1.30;;
4674;SDS011;2351;50.812;12.872;2022-09-21T11:57:09;1.07;;;0.97;;
4674;SDS011;2351;50.812;12.872;2022-09-21T11:59:53;1.17;;;1.10;;
4674;SDS011;2351;50.812;12.872;2022-09-21T12:02:41;1.20;;;1.10;;
4674;SDS011;2351;50.812;12.872;2022-09-21T12:05:23;1.53;;;1.20;;
4674;SDS011;2351;50.812;12.872;2022-09-21T12:08:05;3.40;;;1.33;;
4674;SDS011;2351;50.812;12.872;2022-09-21T12:10:54;6.10;;;1.23;;
4674;SDS011;2351;50.812;12.872;2022-09-21T12:13:34;3.73;;;1.03;;
4674;SDS011;2351;50.812;12.872;2022-09-21T12:16:12;1.70;;;1.10;;
4674;SDS011;2351;50.812;12.872;2022-09-21T12:18:52;1.10;;;0.80;;
4674;SDS011;2351;50.812;12.872;2022-09-21T12:21:29;0.70;;;0.70;;
4674;SDS011;2351;50.812;12.872;2022-09-21T12:24:10;1.27;;;0.70;;
4674;SDS011;2351;50.812;12.872;2022-09-21T12:26:48;0.73;;;0.73;;
4674;SDS011;2351;50.812;12.872;2022-09-21T12:29:25;2.67;;;0.93;;
4674;SDS011;2351;50.812;12.872;2022-09-21T12:32:01;0.97;;;0.97;;
4674;SDS011;2351;50.812;12.872;2022-09-21T12:34:38;3.13;;;0.90;;
4674;SDS011;2351;50.812;12.872;2022-09-21T12:37:12;0.50;;;0.43;;
4674;SDS011;2351;50.812;12.872;2022-09-21T12:39:50;2.50;;;0.60;;
4674;SDS011;2351;50.812;12.872;2022-09-21T12:42:32;1.90;;;0.80;;
4674;SDS011;2351;50.812;12.872;2022-09-21T12:45:12;1.20;;;0.90;;
4674;SDS011;2351;50.812;12.872;2022-09-21T12:47:48;0.80;;;0.80;;
4674;SDS011;2351;50.812;12.872;2022-09-21T12:50:28;0.63;;;0.63;;
4674;SDS011;2351;50.812;12.872;2022-09-21T12:53:07;1.57;;;0.60;;
4674;SDS011;2351;50.812;12.872;2022-09-21T12:55:50;1.77;;;1.00;;
4674;SDS011;2351;50.812;12.872;2022-09-21T13:01:24;0.80;;;0.80;;
4674;SDS011;2351;50.812;12.872;2022-09-21T13:04:02;2.87;;;0.73;;
4674;SDS011;2351;50.812;12.872;2022-09-21T13:06:47;0.80;;;0.60;;
4674;SDS011;2351;50.812;12.872;2022-09-21T13:09:46;0.80;;;0.63;;
4674;SDS011;2351;50.812;12.872;2022-09-21T13:12:22;1.50;;;0.80;;
4674;SDS011;2351;50.812;12.872;2022-09-21T13:15:00;0.63;;;0.63;;
4674;SDS011;2351;50.812;12.872;2022-09-21T13:17:35;2.10;;;0.70;;
4674;SDS011;2351;50.812;12.872;2022-09-21T13:20:14;0.60;;;0.60;;
4674;SDS011;2351;50.812;12.872;2022-09-21T13:22:47;0.60;;;0.57;;
4674;SDS011;2351;50.812;12.872;2022-09-21T13:25:28;3.13;;;0.50;;
4674;SDS011;2351;50.812;12.872;2022-09-21T13:28:03;4.17;;;0.73;;
4674;SDS011;2351;50.812;12.872;2022-09-21T13:30:40;0.50;;;0.40;;
4674;SDS011;2351;50.812;12.872;2022-09-21T13:33:29;1.77;;;0.80;;
4674;SDS011;2351;50.812;12.872;2022-09-21T13:36:04;2.00;;;0.77;;
4674;SDS011;2351;50.812;12.872;2022-09-21T13:39:03;0.60;;;0.60;;
4674;SDS011;2351;50.812;12.872;2022-09-21T13:41:46;3.80;;;0.90;;
4674;SDS011;2351;50.812;12.872;2022-09-21T13:44:19;1.23;;;0.80;;
4674;SDS011;2351;50.812;12.872;2022-09-21T13:47:11;0.90;;;0.70;;
4674;SDS011;2351;50.812;12.872;2022-09-21T13:49:47;2.93;;;0.70;;
4674;SDS011;2351;50.812;12.872;2022-09-21T13:52:26;0.90;;;0.53;;
4674;SDS011;2351;50.812;12.872;2022-09-21T13:55:02;2.13;;;1.13;;
4674;SDS011;2351;50.812;12.872;2022-09-21T13:57:37;1.43;;;0.80;;
4674;SDS011;2351;50.812;12.872;2022-09-21T14:03:06;11.03;;;1.10;;
4674;SDS011;2351;50.812;12.872;2022-09-21T14:05:50;0.50;;;0.50;;
4674;SDS011;2351;50.812;12.872;2022-09-21T14:08:25;4.93;;;1.30;;
4674;SDS011;2351;50.812;12.872;2022-09-21T14:11:00;1.13;;;0.83;;
4674;SDS011;2351;50.812;12.872;2022-09-21T14:13:37;1.30;;;0.73;;
4674;SDS011;2351;50.812;12.872;2022-09-21T14:16:44;1.67;;;0.90;;
4674;SDS011;2351;50.812;12.872;2022-09-21T14:22:39;0.77;;;0.77;;
4674;SDS011;2351;50.812;12.872;2022-09-21T14:25:26;2.33;;;0.47;;
4674;SDS011;2351;50.812;12.872;2022-09-21T14:28:02;0.40;;;0.40;;
4674;SDS011;2351;50.812;12.872;2022-09-21T14:30:39;0.53;;;0.40;;
4674;SDS011;2351;50.812;12.872;2022-09-21T14:33:23;0.70;;;0.70;;
4674;SDS011;2351;50.812;12.872;2022-09-21T14:35:58;0.40;;;0.37;;
4674;SDS011;2351;50.812;12.872;2022-09-21T14:38:36;0.70;;;0.70;;
4674;SDS011;2351;50.812;12.872;2022-09-21T14:41:19;1.83;;;0.50;;
4674;SDS011;2351;50.812;12.872;2022-09-21T14:43:53;3.17;;;0.60;;
4674;SDS011;2351;50.812;12.872;2022-09-21T14:46:33;0.70;;;0.63;;
4674;SDS011;2351;50.812;12.872;2022-09-21T14:49:22;1.17;;;0.50;;
4674;SDS011;2351;50.812;12.872;2022-09-21T14:52:12;0.70;;;0.60;;
4674;SDS011;2351;50.812;12.872;2022-09-21T14:54:54;0.77;;;0.77;;
4674;SDS011;2351;50.812;12.872;2022-09-21T14:57:39;1.10;;;1.00;;
4674;SDS011;2351;50.812;12.872;2022-09-21T15:00:20;2.33;;;1.60;;
4674;SDS011;2351;50.812;12.872;2022-09-21T15:03:03;2.77;;;1.30;;
4674;SDS011;2351;50.812;12.872;2022-09-21T15:05:48;7.63;;;1.13;;
4674;SDS011;2351;50.812;12.872;2022-09-21T15:08:31;3.17;;;0.70;;
4674;SDS011;2351;50.812;12.872;2022-09-21T15:11:36;1.43;;;0.90;;
4674;SDS011;2351;50.812;12.872;2022-09-21T15:14:17;9.57;;;1.47;;
4674;SDS011;2351;50.812;12.872;2022-09-21T15:16:54;1.20;;;0.70;;
4674;SDS011;2351;50.812;12.872;2022-09-21T15:19:26;0.97;;;0.73;;
4674;SDS011;2351;50.812;12.872;2022-09-21T15:22:08;2.07;;;1.00;;
4674;SDS011;2351;50.812;12.872;2022-09-21T15:24:49;2.83;;;0.80;;
4674;SDS011;2351;50.812;12.872;2022-09-21T15:27:24;1.90;;;0.80;;
4674;SDS011;2351;50.812;12.872;2022-09-21T15:30:03;3.83;;;0.67;;
4674;SDS011;2351;50.812;12.872;2022-09-21T15:32:37;0.70;;;0.70;;
4674;SDS011;2351;50.812;12.872;2022-09-21T15:35:15;1.63;;;0.70;;
4674;SDS011;2351;50.812;12.872;2022-09-21T15:37:48;2.83;;;0.97;;
4674;SDS011;2351;50.812;12.872;2022-09-21T15:40:21;0.60;;;0.60;;
4674;SDS011;2351;50.812;12.872;2022-09-21T15:43:00;0.90;;;0.90;;
4674;SDS011;2351;50.812;12.872;2022-09-21T15:45:34;1.03;;;0.70;;
4674;SDS011;2351;50.812;12.872;2022-09-21T15:48:15;0.50;;;0.40;;
4674;SDS011;2351;50.812;12.872;2022-09-21T15:50:51;3.50;;;0.50;;
4674;SDS011;2351;50.812;12.872;2022-09-21T15:53:27;0.50;;;0.40;;
4674;SDS011;2351;50.812;12.872;2022-09-21T15:56:02;1.00;;;0.50;;
4674;SDS011;2351;50.812;12.872;2022-09-21T15:58:35;0.70;;;0.53;;
4674;SDS011;2351;50.812;12.872;2022-09-21T16:01:10;2.17;;;0.40;;
4674;SDS011;2351;50.812;12.872;2022-09-21T16:03:44;0.77;;;0.60;;
4674;SDS011;2351;50.812;12.872;2022-09-21T16:06:16;0.60;;;0.60;;
4674;SDS011;2351;50.812;12.872;2022-09-21T16:08:54;2.13;;;0.60;;
4674;SDS011;2351;50.812;12.872;2022-09-21T16:11:34;0.50;;;0.50;;
4674;SDS011;2351;50.812;12.872;2022-09-21T16:14:09;2.20;;;0.77;;
4674;SDS011;2351;50.812;12.872;2022-09-21T16:17:20;2.73;;;0.60;;